Time;durP1;ratioP1;P1;durP2;ratioP2;P2;SDS_P1;SDS_P2;PMS_P1;PMS_P2;Temp;Humidity;BMP_temperature;BMP_pressure;BME280_temperature;BME280_humidity;BME280_pressure;Samples;Min_cycle;Max_cycle;Signal;HPM_P1;HPM_P2
2022/04/09 00:02:20;;;;;;;2.38;1.83;;;;;;;5.49;nan;99493.28;5022849;28;20041;-48
2022/04/09 00:04:46;;;;;;;3.25;1.80;;;;;;;5.45;nan;99490.31;5026948;28;20017;-50
2022/04/09 00:07:12;;;;;;;4.05;1.80;;;;;;;5.45;nan;99494.81;5027836;28;20498;-47
2022/04/09 00:09:37;;;;;;;3.47;1.80;;;;;;;5.41;nan;99499.03;5029353;28;20056;-46
2022/04/09 00:12:03;;;;;;;3.85;1.90;;;;;;;5.41;nan;99493.72;5024851;28;20017;-46
2022/04/09 00:14:29;;;;;;;6.00;2.05;;;;;;;5.38;nan;99488.88;5024943;28;20033;-47
2022/04/09 00:16:54;;;;;;;3.15;1.60;;;;;;;5.36;nan;99491.78;5021713;28;20033;-50
2022/04/09 00:19:20;;;;;;;6.10;2.00;;;;;;;5.35;nan;99500.78;5017263;28;20049;-48
2022/04/09 00:21:48;;;;;;;5.07;1.98;;;;;;;5.36;nan;99501.59;5022554;28;20029;-47
2022/04/09 00:24:14;;;;;;;5.13;1.67;;;;;;;5.36;nan;99498.94;5024906;28;20406;-47
2022/04/09 00:26:40;;;;;;;3.15;1.67;;;;;;;5.35;nan;99505.28;5020786;28;20113;-46
2022/04/09 00:29:06;;;;;;;2.67;1.60;;;;;;;5.33;nan;99508.19;5023721;28;20029;-47
2022/04/09 00:31:32;;;;;;;3.92;2.30;;;;;;;5.32;nan;99511.09;5020481;28;20036;-47
2022/04/09 00:33:59;;;;;;;5.63;1.75;;;;;;;5.32;nan;99509.25;5023848;28;20477;-46
2022/04/09 00:36:24;;;;;;;5.07;1.92;;;;;;;5.31;nan;99514.81;5019785;28;20025;-47
2022/04/09 00:38:50;;;;;;;4.43;2.15;;;;;;;5.29;nan;99508.94;5025234;28;20025;-50
2022/04/09 00:41:15;;;;;;;5.72;1.92;;;;;;;5.21;nan;99510.16;5026612;28;20490;-48
2022/04/09 00:43:41;;;;;;;5.30;1.90;;;;;;;5.20;nan;99513.03;5021609;28;20029;-49
2022/04/09 00:46:07;;;;;;;4.47;1.90;;;;;;;5.18;nan;99501.84;5023348;28;20588;-46
2022/04/09 00:48:36;;;;;;;5.88;1.88;;;;;;;5.16;nan;99502.91;5028159;28;20083;-47
2022/04/09 00:51:02;;;;;;;3.38;1.98;;;;;;;5.12;nan;99509.75;5026896;28;20032;-47
2022/04/09 00:53:34;;;;;;;4.30;1.90;;;;;;;5.09;nan;99522.72;5025149;28;20033;-47
2022/04/09 00:56:13;;;;;;;3.58;2.10;;;;;;;5.04;nan;99510.16;5027546;28;20057;-47
2022/04/09 00:59:01;;;;;;;4.68;2.10;;;;;;;4.99;nan;99522.53;5026829;28;20517;-46
2022/04/09 01:01:28;;;;;;;6.45;2.35;;;;;;;5.03;nan;99524.50;5021553;28;20566;-50
2022/04/09 01:03:54;;;;;;;7.18;2.80;;;;;;;5.05;nan;99522.41;5026933;28;20143;-47
2022/04/09 01:06:21;;;;;;;6.53;2.10;;;;;;;5.05;nan;99522.41;5017212;28;20034;-47
2022/04/09 01:08:47;;;;;;;4.40;1.77;;;;;;;5.06;nan;99529.31;5017725;28;20481;-46
2022/04/09 01:11:14;;;;;;;4.38;1.85;;;;;;;5.05;nan;99524.25;5022605;28;20079;-48
2022/04/09 01:13:41;;;;;;;2.90;1.40;;;;;;;5.02;nan;99522.06;5021686;28;20083;-46
2022/04/09 01:16:06;;;;;;;6.72;2.50;;;;;;;4.99;nan;99523.34;5021006;28;20767;-46
2022/04/09 01:18:33;;;;;;;4.70;2.38;;;;;;;5.01;nan;99521.25;5023157;28;20044;-50
2022/04/09 01:21:04;;;;;;;4.78;2.05;;;;;;;5.01;nan;99526.56;5024157;28;20535;-50
2022/04/09 01:23:31;;;;;;;5.95;2.05;;;;;;;5.04;nan;99531.41;5025666;28;20056;-50
2022/04/09 01:25:59;;;;;;;5.07;2.10;;;;;;;5.03;nan;99540.41;5020737;28;20022;-47
2022/04/09 01:28:25;;;;;;;2.90;1.80;;;;;;;5.01;nan;99537.19;5024871;28;20027;-48
2022/04/09 01:30:52;;;;;;;2.80;1.60;;;;;;;4.99;nan;99541.13;5023200;28;21173;-50
2022/04/09 01:33:19;;;;;;;7.20;2.03;;;;;;;4.95;nan;99548.75;5023723;28;20029;-48
2022/04/09 01:35:45;;;;;;;5.28;2.00;;;;;;;4.96;nan;99541.59;5018379;28;20071;-50
2022/04/09 01:38:11;;;;;;;3.50;2.05;;;;;;;4.97;nan;99544.03;5024943;28;20036;-47
2022/04/09 01:40:37;;;;;;;7.03;2.22;;;;;;;4.94;nan;99547.16;5024039;28;20029;-49
2022/04/09 01:43:02;;;;;;;7.43;2.30;;;;;;;4.96;nan;99555.69;5023706;28;20030;-46
2022/04/09 01:45:28;;;;;;;3.58;1.73;;;;;;;4.92;nan;99549.25;5022991;28;20463;-47
2022/04/09 01:47:54;;;;;;;4.80;2.08;;;;;;;4.92;nan;99554.56;5025897;28;20469;-48
2022/04/09 01:50:21;;;;;;;3.15;2.13;;;;;;;4.89;nan;99555.03;5029634;28;20689;-47
2022/04/09 01:52:47;;;;;;;5.82;2.15;;;;;;;4.85;nan;99559.22;5027030;28;20025;-52
2022/04/09 01:55:13;;;;;;;3.78;1.95;;;;;;;4.86;nan;99563.50;5026816;28;20031;-48
2022/04/09 01:57:38;;;;;;;5.97;2.08;;;;;;;4.84;nan;99569.00;5025111;28;20631;-46
2022/04/09 02:00:08;;;;;;;7.20;2.03;;;;;;;4.78;nan;99567.31;5028419;28;20025;-48
2022/04/09 02:02:33;;;;;;;4.75;2.05;;;;;;;4.77;nan;99570.22;5027316;28;20029;-48
2022/04/09 02:04:59;;;;;;;8.80;2.35;;;;;;;4.75;nan;99574.97;5020576;28;20024;-47
2022/04/09 02:07:27;;;;;;;3.00;1.83;;;;;;;4.73;nan;99582.34;5026279;28;20049;-49
2022/04/09 02:09:53;;;;;;;6.43;2.33;;;;;;;4.69;nan;99589.19;5020648;28;20152;-47
2022/04/09 02:12:19;;;;;;;7.22;2.80;;;;;;;4.63;nan;99590.13;5028657;28;20100;-46
2022/04/09 02:14:44;;;;;;;7.90;2.33;;;;;;;4.62;nan;99593.81;5022882;28;20121;-47
2022/04/09 02:17:10;;;;;;;3.83;2.28;;;;;;;4.58;nan;99604.09;5025427;28;20128;-47
2022/04/09 02:19:36;;;;;;;8.55;2.00;;;;;;;4.57;nan;99604.34;5027086;28;20063;-46
2022/04/09 02:22:02;;;;;;;6.10;2.55;;;;;;;4.55;nan;99605.38;5023621;28;20091;-46
2022/04/09 02:24:28;;;;;;;6.20;2.25;;;;;;;4.54;nan;99613.56;5025600;28;20029;-48
2022/04/09 02:26:53;;;;;;;3.22;1.83;;;;;;;4.54;nan;99626.84;5022592;28;20049;-46
2022/04/09 02:29:19;;;;;;;5.50;2.20;;;;;;;4.47;nan;99615.53;5025583;28;20029;-48
2022/04/09 02:31:44;;;;;;;9.95;2.60;;;;;;;4.48;nan;99625.91;5026747;28;20029;-47
2022/04/09 02:34:10;;;;;;;5.30;2.30;;;;;;;4.45;nan;99623.72;5025422;28;20506;-48
2022/04/09 02:36:36;;;;;;;7.22;2.50;;;;;;;4.49;nan;99632.84;5023890;28;20075;-49
2022/04/09 02:39:03;;;;;;;4.28;2.67;;;;;;;4.50;nan;99631.00;5028458;28;20041;-47
2022/04/09 02:41:29;;;;;;;3.80;1.95;;;;;;;4.50;nan;99629.16;5029366;28;20074;-49
2022/04/09 02:43:55;;;;;;;8.27;2.65;;;;;;;4.50;nan;99625.72;5026936;28;20148;-50
2022/04/09 02:46:21;;;;;;;6.30;2.00;;;;;;;4.47;nan;99624.31;5024662;28;20018;-47
2022/04/09 02:48:46;;;;;;;9.85;2.50;;;;;;;4.44;nan;99627.44;5023060;28;20029;-47
2022/04/09 02:51:12;;;;;;;6.20;2.47;;;;;;;4.40;nan;99633.44;5023217;28;20099;-47
2022/04/09 02:53:38;;;;;;;6.32;2.20;;;;;;;4.40;nan;99628.94;5027457;28;20025;-46
2022/04/09 02:56:04;;;;;;;4.68;2.08;;;;;;;4.39;nan;99643.25;5026924;28;20462;-46
2022/04/09 02:58:30;;;;;;;6.13;2.88;;;;;;;4.37;nan;99642.69;5024254;28;20031;-46
2022/04/09 03:00:55;;;;;;;5.68;2.00;;;;;;;4.33;nan;99644.19;5028834;28;20104;-46
2022/04/09 03:03:21;;;;;;;4.35;2.17;;;;;;;4.33;nan;99652.16;5026308;28;20021;-49
2022/04/09 03:05:46;;;;;;;4.88;2.40;;;;;;;4.31;nan;99646.28;5022752;28;20029;-48
2022/04/09 03:08:12;;;;;;;5.90;2.03;;;;;;;4.28;nan;99651.22;5026063;28;20594;-46
2022/04/09 03:10:37;;;;;;;6.05;2.70;;;;;;;4.26;nan;99659.41;5024227;28;20151;-50
2022/04/09 03:13:06;;;;;;;4.13;1.90;;;;;;;4.24;nan;99667.59;5022478;28;20404;-46
2022/04/09 03:15:31;;;;;;;4.80;2.08;;;;;;;4.24;nan;99664.13;5024637;28;20057;-53
2022/04/09 03:17:57;;;;;;;6.95;2.28;;;;;;;4.19;nan;99672.00;5022379;28;20114;-46
2022/04/09 03:20:22;;;;;;;4.75;2.30;;;;;;;4.17;nan;99674.06;5019537;28;20033;-47
2022/04/09 03:22:49;;;;;;;5.15;2.42;;;;;;;4.16;nan;99683.06;5023026;28;20022;-49
2022/04/09 03:25:15;;;;;;;4.20;1.98;;;;;;;4.16;nan;99686.53;5027640;28;20482;-46
2022/04/09 03:27:41;;;;;;;6.80;2.42;;;;;;;4.16;nan;99688.38;5022254;28;20056;-46
2022/04/09 03:30:08;;;;;;;6.93;2.40;;;;;;;4.15;nan;99692.06;5025786;28;20021;-47
2022/04/09 03:32:38;;;;;;;6.85;2.30;;;;;;;4.14;nan;99698.41;5022972;28;21101;-46
2022/04/09 03:35:05;;;;;;;7.57;2.90;;;;;;;4.16;nan;99697.13;5024725;28;20033;-51
2022/04/09 03:37:33;;;;;;;5.30;2.78;;;;;;;4.15;nan;99697.38;5022413;28;20394;-50
2022/04/09 03:39:59;;;;;;;5.60;2.50;;;;;;;4.16;nan;99705.09;5023889;28;20025;-46
2022/04/09 03:42:24;;;;;;;4.40;2.25;;;;;;;4.09;nan;99709.69;5023218;28;20467;-46
2022/04/09 03:44:50;;;;;;;3.90;2.60;;;;;;;4.11;nan;99714.75;5026161;28;20886;-46
2022/04/09 03:47:15;;;;;;;5.75;2.47;;;;;;;4.11;nan;99717.41;5022305;28;20037;-49
2022/04/09 03:49:41;;;;;;;4.32;2.25;;;;;;;4.07;nan;99722.34;5025156;28;20107;-46
2022/04/09 03:52:06;;;;;;;6.10;2.55;;;;;;;4.08;nan;99723.97;5028814;28;20484;-48
2022/04/09 03:54:34;;;;;;;5.22;2.58;;;;;;;4.11;nan;99730.66;5020522;28;20037;-48
2022/04/09 03:57:00;;;;;;;5.88;2.60;;;;;;;4.12;nan;99735.72;5025382;28;20471;-48
2022/04/09 03:59:25;;;;;;;6.13;2.45;;;;;;;4.11;nan;99728.00;5024645;28;20032;-48
2022/04/09 04:01:51;;;;;;;8.82;2.97;;;;;;;4.08;nan;99728.47;5023236;28;20033;-48
2022/04/09 04:04:16;;;;;;;6.05;2.53;;;;;;;4.03;nan;99742.41;5023013;28;20093;-49
2022/04/09 04:06:42;;;;;;;6.10;2.85;;;;;;;4.03;nan;99741.59;5025345;28;20478;-51
2022/04/09 04:09:07;;;;;;;6.00;2.33;;;;;;;4.01;nan;99746.34;5022619;28;20028;-47
2022/04/09 04:11:33;;;;;;;6.15;2.72;;;;;;;4.01;nan;99755.09;5021082;28;20030;-48
2022/04/09 04:13:58;;;;;;;3.85;2.50;;;;;;;4.03;nan;99752.22;5026063;28;20091;-46
2022/04/09 04:16:24;;;;;;;3.35;2.17;;;;;;;4.05;nan;99758.09;5023633;28;20044;-47
2022/04/09 04:18:50;;;;;;;5.07;1.80;;;;;;;4.06;nan;99767.66;5026334;28;20025;-49
2022/04/09 04:21:16;;;;;;;7.85;2.38;;;;;;;4.06;nan;99772.94;5023550;28;20050;-46
2022/04/09 04:23:41;;;;;;;8.88;2.58;;;;;;;4.04;nan;99781.13;5024693;28;20057;-47
2022/04/09 04:26:07;;;;;;;4.55;2.30;;;;;;;4.03;nan;99786.66;5019258;28;20091;-47
2022/04/09 04:28:32;;;;;;;7.63;2.60;;;;;;;4.02;nan;99787.72;5016859;28;20036;-47
2022/04/09 04:30:58;;;;;;;4.78;2.03;;;;;;;4.03;nan;99797.28;5022844;28;20059;-46
2022/04/09 04:33:23;;;;;;;3.63;2.22;;;;;;;4.03;nan;99803.38;5016418;28;20030;-46
2022/04/09 04:35:50;;;;;;;3.05;2.17;;;;;;;4.03;nan;99813.16;5021581;28;20025;-45
2022/04/09 04:38:16;;;;;;;7.80;3.00;;;;;;;3.98;nan;99821.81;5005904;28;20487;-46
2022/04/09 04:40:41;;;;;;;5.80;2.42;;;;;;;3.92;nan;99823.50;5026791;28;20091;-45
2022/04/09 04:43:07;;;;;;;7.82;2.45;;;;;;;3.92;nan;99828.81;5021915;28;20017;-46
2022/04/09 04:45:32;;;;;;;6.05;2.13;;;;;;;3.89;nan;99834.56;5022072;28;20026;-46
2022/04/09 04:47:58;;;;;;;10.98;2.72;;;;;;;3.87;nan;99841.13;5025531;28;20029;-45
2022/04/09 04:50:25;;;;;;;8.60;2.65;;;;;;;3.81;nan;99836.75;5024174;28;20387;-46
2022/04/09 04:52:51;;;;;;;6.72;2.13;;;;;;;3.80;nan;99843.06;5021479;28;20035;-49
2022/04/09 04:55:16;;;;;;;7.10;2.03;;;;;;;3.80;nan;99838.59;5026155;28;20033;-45
2022/04/09 04:57:47;;;;;;;11.55;2.47;;;;;;;3.80;nan;99848.38;5022757;28;20025;-46
2022/04/09 05:00:17;;;;;;;6.57;2.40;;;;;;;3.81;nan;99856.09;5022326;28;20159;-45
2022/04/09 05:02:43;;;;;;;5.57;2.50;;;;;;;3.83;nan;99851.38;5021316;28;20434;-45
2022/04/09 05:05:08;;;;;;;5.72;1.88;;;;;;;3.82;nan;99860.38;5016932;28;20029;-45
2022/04/09 05:07:45;;;;;;;5.68;1.95;;;;;;;3.81;nan;99864.06;5021993;28;20014;-46
2022/04/09 05:10:16;;;;;;;6.13;2.40;;;;;;;3.88;nan;99867.41;5024691;28;20487;-46
2022/04/09 05:12:42;;;;;;;6.78;1.73;;;;;;;3.90;nan;99865.34;5024093;28;20095;-46
2022/04/09 05:15:10;;;;;;;4.65;2.42;;;;;;;3.96;nan;99876.09;5023482;28;20021;-46
2022/04/09 05:17:36;;;;;;;4.00;1.63;;;;;;;4.00;nan;99871.94;5022669;28;20025;-45
2022/04/09 05:20:03;;;;;;;6.22;1.60;;;;;;;4.01;nan;99882.31;5026315;28;20033;-46
2022/04/09 05:22:30;;;;;;;6.00;2.45;;;;;;;4.01;nan;99892.09;5027720;28;20029;-47
2022/04/09 05:24:56;;;;;;;8.40;2.72;;;;;;;4.01;nan;99892.09;5028534;28;20033;-47
2022/04/09 05:27:21;;;;;;;6.90;1.90;;;;;;;4.03;nan;99896.16;5023060;28;20040;-46
2022/04/09 05:29:48;;;;;;;2.58;1.90;;;;;;;4.06;nan;99901.00;5030115;28;20104;-46
2022/04/09 05:32:13;;;;;;;5.25;2.20;;;;;;;4.09;nan;99908.50;5026614;28;20052;-46
2022/04/09 05:34:39;;;;;;;4.00;2.28;;;;;;;4.12;nan;99913.34;5026079;28;20030;-46
2022/04/09 05:37:05;;;;;;;5.60;1.88;;;;;;;4.15;nan;99920.88;5026548;28;20048;-46
2022/04/09 05:39:31;;;;;;;7.13;1.75;;;;;;;4.17;nan;99924.09;5026408;28;20025;-46
2022/04/09 05:41:56;;;;;;;6.13;1.92;;;;;;;4.23;nan;99932.97;5024223;28;20558;-46
2022/04/09 05:44:22;;;;;;;9.43;2.00;;;;;;;4.27;nan;99928.03;5024979;28;20036;-46
2022/04/09 05:46:47;;;;;;;6.53;1.88;;;;;;;4.30;nan;99938.97;5022601;28;20026;-46
2022/04/09 05:49:13;;;;;;;7.82;2.00;;;;;;;4.31;nan;99945.94;5025118;28;20104;-46
2022/04/09 05:51:38;;;;;;;7.95;2.67;;;;;;;4.37;nan;99955.63;5026681;28;20053;-46
2022/04/09 05:54:04;;;;;;;7.85;1.90;;;;;;;4.38;nan;99957.25;5027386;28;20021;-47
2022/04/09 05:56:30;;;;;;;5.03;2.33;;;;;;;4.40;nan;99972.91;5027257;28;20087;-46
2022/04/09 05:58:56;;;;;;;7.57;2.08;;;;;;;4.41;nan;99972.69;5025634;28;20491;-47
2022/04/09 06:01:21;;;;;;;6.28;2.50;;;;;;;4.43;nan;99975.94;5026538;28;20554;-46
2022/04/09 06:03:47;;;;;;;5.75;2.45;;;;;;;4.46;nan;99987.91;5026490;28;20506;-47
2022/04/09 06:06:12;;;;;;;8.00;2.28;;;;;;;4.53;nan;99988.66;5028480;28;20048;-46
2022/04/09 06:08:38;;;;;;;9.38;2.30;;;;;;;4.60;nan;99992.00;5024423;28;20111;-46
2022/04/09 06:11:05;;;;;;;6.57;2.15;;;;;;;4.69;nan;99995.16;5022728;28;20021;-47
2022/04/09 06:13:31;;;;;;;5.60;1.77;;;;;;;4.77;nan;100000.13;5024143;28;20045;-46
2022/04/09 06:15:56;;;;;;;4.75;1.80;;;;;;;4.83;nan;99999.19;5025535;28;20021;-46
2022/04/09 06:18:22;;;;;;;6.72;2.05;;;;;;;4.90;nan;100001.75;5029121;28;20039;-46
2022/04/09 06:20:47;;;;;;;10.55;2.55;;;;;;;4.94;nan;99998.41;5030105;28;20055;-50
2022/04/09 06:23:13;;;;;;;6.80;2.05;;;;;;;5.01;nan;100001.75;5025941;28;20088;-46
2022/04/09 06:25:38;;;;;;;5.35;1.90;;;;;;;5.07;nan;100013.31;5024779;28;20025;-46
2022/04/09 06:28:04;;;;;;;4.00;2.10;;;;;;;5.06;nan;100009.88;5026609;28;20021;-49
2022/04/09 06:30:29;;;;;;;7.15;2.30;;;;;;;5.08;nan;100014.94;5021763;28;20025;-47
2022/04/09 06:32:55;;;;;;;7.63;3.00;;;;;;;5.09;nan;100019.22;5023899;28;20102;-47
2022/04/09 06:35:22;;;;;;;5.88;2.15;;;;;;;5.13;nan;100015.88;5025172;28;20144;-47
2022/04/09 06:37:47;;;;;;;8.52;2.45;;;;;;;5.23;nan;100027.78;5025812;28;20026;-45
2022/04/09 06:40:13;;;;;;;6.00;2.00;;;;;;;5.23;nan;100022.47;5023146;28;20078;-46
2022/04/09 06:42:42;;;;;;;9.32;1.98;;;;;;;5.24;nan;100024.06;5025583;28;20027;-46
2022/04/09 06:45:08;;;;;;;5.63;1.98;;;;;;;5.33;nan;100026.16;5027050;28;20029;-47
2022/04/09 06:47:38;;;;;;;9.63;2.75;;;;;;;5.42;nan;100034.59;5024640;28;20022;-46
2022/04/09 06:50:11;;;;;;;9.80;2.45;;;;;;;5.52;nan;100037.47;5025275;28;20033;-47
2022/04/09 06:52:38;;;;;;;7.75;2.30;;;;;;;5.56;nan;100048.44;5027358;28;20598;-46
2022/04/09 06:55:05;;;;;;;6.35;2.30;;;;;;;5.62;nan;100045.66;5026803;28;20037;-47
2022/04/09 06:57:32;;;;;;;9.77;1.92;;;;;;;5.60;nan;100049.59;5028921;28;20037;-47
2022/04/09 06:59:58;;;;;;;10.20;2.28;;;;;;;5.62;nan;100056.31;5027834;28;20064;-46
2022/04/09 07:02:24;;;;;;;8.07;2.38;;;;;;;5.74;nan;100061.59;5025507;28;21069;-45
2022/04/09 07:04:50;;;;;;;11.32;3.17;;;;;;;5.85;nan;100074.06;5023756;28;20025;-46
2022/04/09 07:07:23;;;;;;;10.27;2.78;;;;;;;5.94;nan;100074.56;5026255;28;20041;-46
2022/04/09 07:09:49;;;;;;;8.90;2.67;;;;;;;6.06;nan;100075.31;5020016;28;20108;-47
2022/04/09 07:12:15;;;;;;;6.60;2.10;;;;;;;6.14;nan;100072.31;5025088;28;20117;-46
2022/04/09 07:14:41;;;;;;;10.15;2.22;;;;;;;6.08;nan;100081.22;5023622;28;20482;-45
2022/04/09 07:17:07;;;;;;;4.78;2.40;;;;;;;6.06;nan;100083.31;5016916;28;20025;-46
2022/04/09 07:19:33;;;;;;;10.93;2.97;;;;;;;6.09;nan;100093.47;5025242;28;20029;-46
2022/04/09 07:21:59;;;;;;;7.15;3.10;;;;;;;6.18;nan;100096.59;5021474;28;20371;-47
2022/04/09 07:24:24;;;;;;;7.65;2.83;;;;;;;6.20;nan;100094.50;5025844;28;20033;-46
2022/04/09 07:26:50;;;;;;;15.32;3.40;;;;;;;6.24;nan;100099.09;5026071;28;20021;-46
2022/04/09 07:29:16;;;;;;;6.63;2.05;;;;;;;6.29;nan;100101.91;5023379;28;20076;-45
2022/04/09 07:31:42;;;;;;;8.85;2.40;;;;;;;6.36;nan;100097.25;5026091;28;20025;-47
2022/04/09 07:34:07;;;;;;;5.75;1.90;;;;;;;6.46;nan;100109.09;5022753;28;20029;-46
2022/04/09 07:36:33;;;;;;;6.65;2.03;;;;;;;6.54;nan;100108.75;5022312;28;20030;-48
2022/04/09 07:38:59;;;;;;;13.25;2.90;;;;;;;6.54;nan;100114.88;5021701;28;20035;-45
2022/04/09 07:41:24;;;;;;;8.68;2.17;;;;;;;6.60;nan;100118.44;5025828;28;20141;-46
2022/04/09 07:43:50;;;;;;;5.07;2.20;;;;;;;6.61;nan;100128.03;5020172;28;20032;-46
2022/04/09 07:46:15;;;;;;;8.80;2.35;;;;;;;6.63;nan;100117.97;5025914;28;20028;-46
2022/04/09 07:48:41;;;;;;;5.85;2.33;;;;;;;6.67;nan;100135.09;5025959;28;20131;-46
2022/04/09 07:51:06;;;;;;;7.57;2.08;;;;;;;6.78;nan;100131.56;5027131;28;20512;-47
2022/04/09 07:53:32;;;;;;;9.45;1.95;;;;;;;6.95;nan;100131.59;5023611;28;20029;-46
2022/04/09 07:55:58;;;;;;;7.68;2.10;;;;;;;7.14;nan;100134.88;5023037;28;20025;-47
2022/04/09 07:58:23;;;;;;;9.70;2.47;;;;;;;7.23;nan;100142.25;5022920;28;20086;-46
2022/04/09 08:00:50;;;;;;;9.07;1.98;;;;;;;7.31;nan;100148.22;5020210;28;20305;-47
2022/04/09 08:03:15;;;;;;;4.72;1.75;;;;;;;7.45;nan;100147.66;5024531;28;20673;-47
2022/04/09 08:05:42;;;;;;;8.45;1.55;;;;;;;7.48;nan;100168.50;5021962;28;20021;-47
2022/04/09 08:08:08;;;;;;;6.22;1.83;;;;;;;7.53;nan;100154.44;5019143;28;20033;-47
2022/04/09 08:10:34;;;;;;;6.22;2.72;;;;;;;7.44;nan;100163.91;5021734;28;20026;-48
2022/04/09 08:13:00;;;;;;;12.30;2.05;;;;;;;7.43;nan;100168.44;5021504;28;20049;-47
2022/04/09 08:15:26;;;;;;;4.55;1.60;;;;;;;7.38;nan;100163.03;5024438;28;20503;-47
2022/04/09 08:17:54;;;;;;;7.47;2.00;;;;;;;7.43;nan;100163.09;5022267;28;20025;-46
2022/04/09 08:20:20;;;;;;;6.22;1.60;;;;;;;7.46;nan;100167.94;5024812;28;20037;-48
2022/04/09 08:22:47;;;;;;;6.47;1.35;;;;;;;7.51;nan;100167.22;5024803;28;20033;-46
2022/04/09 08:25:12;;;;;;;6.53;1.60;;;;;;;7.48;nan;100184.50;5019704;28;20069;-47
2022/04/09 08:27:38;;;;;;;6.72;1.90;;;;;;;7.40;nan;100170.78;5024747;28;20114;-46
2022/04/09 08:30:06;;;;;;;7.95;1.80;;;;;;;7.45;nan;100190.31;5020029;28;20517;-47
2022/04/09 08:32:32;;;;;;;4.50;1.60;;;;;;;7.61;nan;100187.91;5022134;28;20040;-46
2022/04/09 08:34:58;;;;;;;6.53;2.15;;;;;;;7.64;nan;100184.75;5022955;28;20480;-46
2022/04/09 08:37:24;;;;;;;7.25;1.60;;;;;;;7.71;nan;100188.06;5016878;28;20029;-47
2022/04/09 08:39:54;;;;;;;4.22;1.52;;;;;;;7.83;nan;100199.47;5021682;28;20144;-48
2022/04/09 08:42:21;;;;;;;4.75;1.30;;;;;;;8.08;nan;100194.53;5025542;28;20108;-45
2022/04/09 08:44:47;;;;;;;7.72;1.58;;;;;;;8.33;nan;100190.59;5020293;28;20034;-45
2022/04/09 08:47:14;;;;;;;5.20;1.67;;;;;;;8.49;nan;100195.09;5022295;28;20563;-46
2022/04/09 08:49:43;;;;;;;8.23;1.95;;;;;;;8.58;nan;100196.28;5023896;28;20154;-47
2022/04/09 08:52:09;;;;;;;5.00;1.33;;;;;;;8.58;nan;100204.28;5023886;28;20038;-46
2022/04/09 08:54:37;;;;;;;7.22;1.50;;;;;;;8.56;nan;100206.41;5022122;28;20021;-47
2022/04/09 08:57:04;;;;;;;8.13;1.75;;;;;;;8.38;nan;100204.03;5021630;28;20030;-47
2022/04/09 08:59:29;;;;;;;5.45;1.65;;;;;;;8.30;nan;100191.06;5023762;28;20032;-46
2022/04/09 09:01:55;;;;;;;3.65;1.77;;;;;;;8.31;nan;100208.72;5022107;28;20037;-46
2022/04/09 09:04:20;;;;;;;8.00;1.60;;;;;;;8.46;nan;100200.94;5019962;28;20033;-46
2022/04/09 09:06:46;;;;;;;4.63;1.58;;;;;;;8.67;nan;100205.47;5022350;28;20060;-46
2022/04/09 09:09:32;;;;;;;4.22;1.50;;;;;;;8.81;nan;100216.59;5023027;28;20138;-46
2022/04/09 09:12:00;;;;;;;2.70;1.70;;;;;;;8.95;nan;100214.34;5021309;28;20022;-46
2022/04/09 09:14:30;;;;;;;6.07;1.80;;;;;;;9.00;nan;100214.41;5024991;28;20045;-46
2022/04/09 09:17:00;;;;;;;7.15;2.00;;;;;;;9.08;nan;100221.97;5025529;28;20590;-47
2022/04/09 09:19:42;;;;;;;6.18;1.42;;;;;;;9.04;nan;100223.53;5022932;28;20081;-46
2022/04/09 09:22:08;;;;;;;3.60;1.42;;;;;;;9.13;nan;100227.38;5020823;28;20160;-46
2022/04/09 09:24:33;;;;;;;4.95;1.23;;;;;;;9.16;nan;100221.53;5023480;28;20112;-46
2022/04/09 09:27:01;;;;;;;8.27;1.52;;;;;;;9.30;nan;100228.09;5024883;28;20065;-46
2022/04/09 09:29:29;;;;;;;4.90;1.58;;;;;;;9.41;nan;100231.69;5020062;28;20037;-47
2022/04/09 09:31:56;;;;;;;6.82;1.52;;;;;;;9.38;nan;100224.97;5021370;28;20033;-46
2022/04/09 09:34:22;;;;;;;4.65;1.88;;;;;;;9.55;nan;100229.41;5020453;28;20029;-45
2022/04/09 09:36:49;;;;;;;7.57;1.40;;;;;;;9.60;nan;100235.59;5021070;28;20018;-47
2022/04/09 09:39:20;;;;;;;4.78;1.50;;;;;;;9.66;nan;100223.88;5020952;28;21049;-46
2022/04/09 09:41:53;;;;;;;6.65;1.52;;;;;;;9.82;nan;100234.69;5018863;28;20037;-46
2022/04/09 09:44:21;;;;;;;3.78;1.60;;;;;;;9.88;nan;100223.00;5025745;28;20605;-47
2022/04/09 09:46:49;;;;;;;6.80;1.25;;;;;;;9.79;nan;100237.91;5023762;28;20047;-46
2022/04/09 09:49:19;;;;;;;5.38;1.75;;;;;;;9.77;nan;100235.47;5016959;28;20110;-47
2022/04/09 09:52:01;;;;;;;4.85;1.73;;;;;;;9.82;nan;100237.38;5023369;28;20542;-47
2022/04/09 09:54:27;;;;;;;8.30;1.85;;;;;;;9.70;nan;100234.91;5020367;28;20045;-46
2022/04/09 09:56:53;;;;;;;6.28;1.55;;;;;;;9.61;nan;100245.22;5024055;28;20030;-46
2022/04/09 09:59:21;;;;;;;6.10;1.38;;;;;;;9.56;nan;100247.88;5022109;28;20080;-46
2022/04/09 10:01:47;;;;;;;4.22;1.55;;;;;;;9.40;nan;100248.78;5024020;28;20049;-46
2022/04/09 10:04:13;;;;;;;5.85;1.60;;;;;;;9.34;nan;100250.59;5017662;28;20045;-46
2022/04/09 10:06:42;;;;;;;8.73;2.00;;;;;;;9.44;nan;100246.41;5020914;28;20064;-45
2022/04/09 10:09:08;;;;;;;4.05;1.25;;;;;;;9.48;nan;100250.97;5024017;28;20029;-46
2022/04/09 10:11:36;;;;;;;5.07;1.30;;;;;;;9.43;nan;100242.91;5021278;28;20079;-47
2022/04/09 10:14:03;;;;;;;3.67;1.23;;;;;;;9.48;nan;100258.19;5024013;28;20087;-46
2022/04/09 10:16:33;;;;;;;7.15;1.30;;;;;;;9.50;nan;100253.41;5022948;28;20037;-46
2022/04/09 10:19:00;;;;;;;3.88;1.05;;;;;;;9.45;nan;100267.53;5023062;28;20593;-45
2022/04/09 10:21:30;;;;;;;6.22;1.92;;;;;;;9.34;nan;100250.59;5023468;28;20060;-46
2022/04/09 10:23:58;;;;;;;4.63;1.23;;;;;;;9.34;nan;100252.47;5024828;28;20048;-46
2022/04/09 10:26:26;;;;;;;4.07;1.08;;;;;;;9.51;nan;100250.47;5021531;28;20116;-46
2022/04/09 10:29:07;;;;;;;6.38;1.50;;;;;;;9.62;nan;100232.66;5022044;28;20025;-48
2022/04/09 10:31:34;;;;;;;3.72;0.90;;;;;;;9.69;nan;100231.41;5030687;23;20045;-47
2022/04/09 10:34:02;;;;;;;4.55;1.25;;;;;;;9.76;nan;100236.53;5018770;28;20035;-49
2022/04/09 10:36:40;;;;;;;5.57;1.17;;;;;;;9.82;nan;100230.16;5021306;28;20037;-49
2022/04/09 10:39:39;;;;;;;6.30;1.58;;;;;;;10.12;nan;100228.78;5022825;28;20044;-49
2022/04/09 10:42:05;;;;;;;6.53;1.20;;;;;;;10.45;nan;100215.09;5008045;28;20376;-49
2022/04/09 10:44:43;;;;;;;3.25;1.40;;;;;;;10.59;nan;100218.09;5004342;28;20039;-53
2022/04/09 10:47:14;;;;;;;2.90;1.10;;;;;;;10.57;nan;100226.41;5003820;28;20026;-53
2022/04/09 10:49:41;;;;;;;3.65;1.27;;;;;;;10.42;nan;100229.00;5001123;28;20390;-52
2022/04/09 10:52:11;;;;;;;4.07;1.33;;;;;;;10.28;nan;100231.34;5001818;28;20411;-49
2022/04/09 10:54:37;;;;;;;3.70;1.10;;;;;;;10.27;nan;100245.78;4998322;28;20075;-51
2022/04/09 10:57:08;;;;;;;5.50;1.33;;;;;;;10.27;nan;100258.38;5003198;28;20018;-52
2022/04/09 10:59:34;;;;;;;3.65;1.50;;;;;;;10.23;nan;100258.09;5002594;28;20029;-50
2022/04/09 11:02:00;;;;;;;4.97;1.25;;;;;;;10.19;nan;100261.47;4998946;28;20034;-51
2022/04/09 11:04:29;;;;;;;8.20;1.65;;;;;;;10.13;nan;100262.53;5002072;28;20282;-49
2022/04/09 11:07:17;;;;;;;10.48;1.45;;;;;;;9.84;nan;100286.91;5000057;28;20075;-48
2022/04/09 11:09:56;;;;;;;18.10;1.63;;;;;;;9.40;nan;100304.94;5002723;28;20131;-50
2022/04/09 11:12:24;;;;;;;1.35;1.08;;;;;;;9.12;nan;100308.59;5001135;28;20026;-51
2022/04/09 11:14:52;;;;;;;3.22;0.90;;;;;;;8.98;nan;100304.72;4996850;28;20038;-54
2022/04/09 11:17:39;;;;;;;1.17;0.63;;;;;;;8.99;nan;100300.97;5001277;28;20113;-52
2022/04/09 11:20:13;;;;;;;1.85;0.70;;;;;;;9.08;nan;100299.47;5002533;28;20034;-49
2022/04/09 11:22:41;;;;;;;0.52;0.47;;;;;;;9.21;nan;100311.66;5004338;28;20022;-48
2022/04/09 11:25:09;;;;;;;0.82;0.60;;;;;;;9.41;nan;100300.38;4998218;28;20034;-52
2022/04/09 11:27:35;;;;;;;3.53;0.82;;;;;;;9.62;nan;100299.53;5000548;28;20106;-51
2022/04/09 11:30:01;;;;;;;0.82;0.70;;;;;;;9.84;nan;100302.94;5001203;28;20116;-52
2022/04/09 11:32:28;;;;;;;2.25;0.80;;;;;;;10.08;nan;100294.63;5000051;28;20042;-50
2022/04/09 11:34:57;;;;;;;2.70;1.05;;;;;;;10.32;nan;100290.53;5001591;28;20028;-51
2022/04/09 11:37:31;;;;;;;2.55;1.20;;;;;;;10.52;nan;100287.97;4998610;28;20403;-50
2022/04/09 11:39:58;;;;;;;2.33;1.05;;;;;;;10.77;nan;100278.47;5000896;28;20036;-52
2022/04/09 11:42:24;;;;;;;1.98;1.30;;;;;;;11.02;nan;100286.63;5003179;28;20033;-51
2022/04/09 11:44:50;;;;;;;3.00;1.33;;;;;;;11.24;nan;100280.28;5003294;28;20021;-51
2022/04/09 11:47:18;;;;;;;6.15;1.58;;;;;;;11.46;nan;100268.25;5002574;28;20025;-49
2022/04/09 11:49:47;;;;;;;3.03;1.33;;;;;;;11.54;nan;100266.94;5003629;28;20852;-48
2022/04/09 11:52:12;;;;;;;3.90;1.10;;;;;;;11.49;nan;100265.06;4998529;28;20120;-50
2022/04/09 11:54:39;;;;;;;3.53;1.40;;;;;;;11.35;nan;100281.94;5002793;28;20169;-54